Tallinn, Estonia
Current Conditions -  °F | °C
As of 10:20 AM on Thursday 27 Nov 2014 (Local Time) from EETN Reporting Station
Light Snow Light Snow  
Wind Chill: 27°   Ceiling: 400
Heat Index: 32°   Visibility: 2.2mi
Dew Point: 32°   Wind: 5mph
Humidity: 100%   Direction: 160°SSE
Pressure: 30.3"   Gusts: NA
Location:  59.44°N, 24.74°E
Report Text: EETN 270820Z 16004KT 130V190 3600 -SN BR OVC004 00/00 Q1026 R08/290195 NOSIG
Loading
Personal Weather Stations






























Interactive Weather Map New forecast layout! Learn more

10-Day Weather Forecast

Advertisements
Track Severe Weather on mobile